Ana Sayfa
METAR-TAF:

METAR-TAF

Havaalanları :

Kadala Havalimanı

Çita, Rusya

Enlem: 52-05N, Boylam: 113-29E, yükseklik: 685 m

Güncel hava durumu gözlemi

Rapor saat 21:00 UTC de 15 dakika önce yapıldı.
Rüzgar kuzeydan 2 kt
Sıcaklık -21°C
Nem 77%
Basınç 1028 hPa
Görüş mesafesi 10 km veya daha fazla

METAR: UIAA 242100Z 01001MPS 9999 NSC M21/M24 Q1028 R29/410160 NOSIG RMK QFE712/0950

Saat: 06:15 (21:15 UTC)

Tahmin

Rapor saat 20:00 UTC de 1 saat ve 15 dakika önce yapıldı.
Ayın 24'si saat 21 UTC'den ayın 25'si saat 21 UTC'ye kadar geçerli Tahmin
Rüzgar değişken yönden 2 kt
Görüş mesafesi 10 km veya daha fazla
Geçici
ayın 24'si saat 21 UTC'den ayın 25'si saat 02 UTC'ye kadar
Görüş mesafesi: 3100 m
Pus, Duman

TAF: UIAA 242000Z 2421/2521 VRB01MPS 9999 NSC TEMPO 2421/2502 3100 BR FU

4.000'den fazla havaalanı için hava durumu gözlemleri ve tahminleri (METAR ve TAF raporları).

Kullanılabilir istasyonlar harita üzerinde sarı ve kırmızı noktalarla gösterilir.

İstasyonun adını görmek için fareyi noktanın üzerinde gezdirin.

Sonrasında hava gözlem ve tahminlerini görmek için tıklayın.

Haritayı değiştirmek için: yaklaştırmak için siyah artı işaretli yeşil düğmeye ve uzaklaştırmak için de eksi işaretli düğmeye hızla tıklayın; bitişik haritalar için yeşil okları kullanın.


METAR-TAF: